createdAt,value
2023-03-30T00:00:26.592Z,162.92
2023-03-30T00:01:26.624Z,166.12
2023-03-30T00:02:26.615Z,161.15
2023-03-30T00:03:26.675Z,163.91
2023-03-30T00:04:26.654Z,164.00
2023-03-30T00:05:26.594Z,162.15
2023-03-30T00:06:26.627Z,162.98
2023-03-30T00:07:26.544Z,161.93
2023-03-30T00:08:26.556Z,163.52
2023-03-30T00:09:26.547Z,162.54
2023-03-30T00:10:26.562Z,165.50
2023-03-30T00:11:26.624Z,164.96
2023-03-30T00:12:26.628Z,161.23
2023-03-30T00:13:26.679Z,162.09
2023-03-30T00:14:26.764Z,166.77
2023-03-30T00:15:26.782Z,162.73
2023-03-30T00:16:26.852Z,165.36
2023-03-30T00:17:26.876Z,165.62
2023-03-30T00:18:26.926Z,161.82
2023-03-30T00:19:26.926Z,161.33
2023-03-30T00:20:27.034Z,166.66
2023-03-30T00:21:27.050Z,161.01
2023-03-30T00:22:27.108Z,160.71
2023-03-30T00:23:27.195Z,161.67
2023-03-30T00:24:27.175Z,162.23
2023-03-30T00:25:27.264Z,160.58
2023-03-30T00:26:27.276Z,157.87
2023-03-30T00:27:27.305Z,163.66
2023-03-30T00:28:27.298Z,166.21
2023-03-30T00:29:27.366Z,162.87
2023-03-30T00:30:27.409Z,159.24
2023-03-30T00:31:27.532Z,161.45
2023-03-30T00:32:27.504Z,163.88
2023-03-30T00:33:41.167Z,160.15
2023-03-30T00:34:28.518Z,160.45
2023-03-30T00:35:27.526Z,160.82
2023-03-30T00:36:27.533Z,161.89
2023-03-30T00:37:27.534Z,160.43
2023-03-30T00:38:27.550Z,162.83
2023-03-30T00:39:27.478Z,160.32
2023-03-30T00:40:27.489Z,162.39
2023-03-30T00:41:27.446Z,159.77
2023-03-30T00:42:27.505Z,154.60
2023-03-30T00:43:27.482Z,161.80
2023-03-30T00:44:27.451Z,161.84
2023-03-30T00:45:27.472Z,162.94
2023-03-30T00:46:27.475Z,157.67
2023-03-30T00:47:27.687Z,159.63
2023-03-30T00:48:27.534Z,160.99
2023-03-30T00:49:27.603Z,161.16
2023-03-30T00:50:27.657Z,157.72
2023-03-30T00:51:27.694Z,162.58
2023-03-30T00:52:27.732Z,159.98
2023-03-30T00:53:27.780Z,160.17
2023-03-30T00:54:27.805Z,158.97
2023-03-30T00:55:27.830Z,161.76
2023-03-30T00:56:27.875Z,161.05
2023-03-30T00:57:27.938Z,160.30
2023-03-30T00:58:27.981Z,154.98
2023-03-30T00:59:28.022Z,160.60
2023-03-30T01:00:28.094Z,160.68
2023-03-30T01:01:28.217Z,161.47
2023-03-30T01:02:28.214Z,162.47
2023-03-30T01:03:28.330Z,159.80
2023-03-30T01:04:28.247Z,158.73
2023-03-30T01:05:28.304Z,159.53
2023-03-30T01:06:28.322Z,157.90
2023-03-30T01:07:28.357Z,157.29
2023-03-30T01:08:28.382Z,156.91
2023-03-30T01:09:28.457Z,160.96
2023-03-30T01:10:28.459Z,156.59
2023-03-30T01:11:28.514Z,158.50
2023-03-30T01:12:28.580Z,157.55
2023-03-30T01:13:28.628Z,156.78
2023-03-30T01:14:28.638Z,157.89
2023-03-30T01:15:28.737Z,159.13
2023-03-30T01:16:28.720Z,160.20
2023-03-30T01:17:28.818Z,156.24
2023-03-30T01:18:28.811Z,158.15
2023-03-30T01:19:28.840Z,159.58
2023-03-30T01:20:28.905Z,156.77
2023-03-30T01:21:28.892Z,155.32
2023-03-30T01:22:28.971Z,154.70
2023-03-30T01:23:29.001Z,154.52
2023-03-30T01:24:29.088Z,158.47
2023-03-30T01:25:29.067Z,153.87
2023-03-30T01:26:29.125Z,157.09
2023-03-30T01:27:29.148Z,157.63
2023-03-30T01:28:29.229Z,154.01
2023-03-30T01:29:29.258Z,154.65
2023-03-30T01:30:29.323Z,155.40
2023-03-30T01:31:29.378Z,156.88
2023-03-30T01:32:29.450Z,155.55
2023-03-30T01:33:29.448Z,156.61
2023-03-30T01:34:29.460Z,156.14
2023-03-30T01:35:29.570Z,155.66
2023-03-30T01:36:29.608Z,155.97
2023-03-30T01:37:29.616Z,157.03
2023-03-30T01:38:29.678Z,157.58
2023-03-30T01:39:29.683Z,155.05
2023-03-30T01:40:29.817Z,152.77
2023-03-30T01:41:29.755Z,160.39
2023-03-30T01:42:29.792Z,158.21
2023-03-30T01:43:29.935Z,155.24
2023-03-30T01:44:29.917Z,153.84
2023-03-30T01:45:29.988Z,156.60
2023-03-30T01:46:30.046Z,158.04
2023-03-30T01:47:30.132Z,153.81
2023-03-30T01:48:30.100Z,153.66
2023-03-30T01:49:30.205Z,154.08
2023-03-30T01:50:30.215Z,151.66
2023-03-30T01:51:30.300Z,155.03
2023-03-30T01:52:30.304Z,156.49
2023-03-30T01:53:30.415Z,157.00
2023-03-30T01:54:30.434Z,155.22
2023-03-30T01:55:30.451Z,155.43
2023-03-30T01:56:30.564Z,152.75
2023-03-30T01:57:30.559Z,152.39
2023-03-30T01:58:30.656Z,152.15
2023-03-30T01:59:30.621Z,156.70
2023-03-30T02:00:30.689Z,151.46
2023-03-30T02:01:30.787Z,151.04
2023-03-30T02:02:30.852Z,149.64
2023-03-30T02:03:30.933Z,153.82
2023-03-30T02:04:30.901Z,151.64
2023-03-30T02:05:30.996Z,155.33
2023-03-30T02:06:31.012Z,156.10
2023-03-30T02:07:31.102Z,153.98
2023-03-30T02:08:31.164Z,151.11
2023-03-30T02:09:31.165Z,153.34
2023-03-30T02:10:31.248Z,149.75
2023-03-30T02:11:31.271Z,154.61
2023-03-30T02:12:31.308Z,150.98
2023-03-30T02:13:31.409Z,153.69
2023-03-30T02:14:31.392Z,153.23
2023-03-30T02:15:31.482Z,153.04
2023-03-30T02:16:31.653Z,149.35
2023-03-30T02:17:31.633Z,151.45
2023-03-30T02:18:31.700Z,153.33
2023-03-30T02:19:31.692Z,150.87
2023-03-30T02:20:31.762Z,153.36
2023-03-30T02:21:31.742Z,154.44
2023-03-30T02:22:31.842Z,153.18
2023-03-30T02:23:31.892Z,150.61
2023-03-30T02:24:31.889Z,153.40
2023-03-30T02:25:31.917Z,154.35
2023-03-30T02:26:32.007Z,149.21
2023-03-30T02:27:32.026Z,152.74
2023-03-30T02:28:32.085Z,150.20
2023-03-30T02:29:32.146Z,149.69
2023-03-30T02:30:32.170Z,152.43
2023-03-30T02:31:32.299Z,150.58
2023-03-30T02:32:32.324Z,151.18
2023-03-30T02:33:32.328Z,151.89
2023-03-30T02:34:32.384Z,150.02
2023-03-30T02:35:32.499Z,147.99
2023-03-30T02:36:32.475Z,152.41
2023-03-30T02:37:32.515Z,154.30
2023-03-30T02:38:32.562Z,148.62
2023-03-30T02:39:32.598Z,146.47
2023-03-30T02:40:32.681Z,145.56
2023-03-30T02:41:32.727Z,151.66
2023-03-30T02:42:32.748Z,151.79
2023-03-30T02:43:32.800Z,147.21
2023-03-30T02:44:32.811Z,150.46
2023-03-30T02:45:32.901Z,148.44
2023-03-30T02:46:32.909Z,147.39
2023-03-30T02:47:33.024Z,149.24
2023-03-30T02:48:32.989Z,149.71
2023-03-30T02:49:33.053Z,149.44
2023-03-30T02:50:33.111Z,149.39
2023-03-30T02:51:33.174Z,146.69
2023-03-30T02:52:33.189Z,153.66
2023-03-30T02:53:33.267Z,149.48
2023-03-30T02:54:33.275Z,146.45
2023-03-30T02:55:33.362Z,146.72
2023-03-30T02:56:33.403Z,148.83
2023-03-30T02:57:33.452Z,149.80
2023-03-30T02:58:33.489Z,150.35
2023-03-30T02:59:33.538Z,148.77
2023-03-30T03:00:33.567Z,151.11
2023-03-30T03:01:33.684Z,148.91
2023-03-30T03:02:33.786Z,147.87
2023-03-30T03:03:33.816Z,146.77
2023-03-30T03:04:33.763Z,149.04
2023-03-30T03:05:33.808Z,151.23
2023-03-30T03:06:33.869Z,150.79
2023-03-30T03:07:34.017Z,148.15
2023-03-30T03:08:34.021Z,151.48
2023-03-30T03:09:34.010Z,150.31
2023-03-30T03:10:34.041Z,150.98
2023-03-30T03:11:34.095Z,150.78
2023-03-30T03:12:34.146Z,147.60
2023-03-30T03:13:34.159Z,151.62
2023-03-30T03:14:34.251Z,150.75
2023-03-30T03:15:34.307Z,148.17
2023-03-30T03:16:34.354Z,149.00
2023-03-30T03:17:34.391Z,148.86
2023-03-30T03:18:34.528Z,149.70
2023-03-30T03:19:34.440Z,146.45
2023-03-30T03:20:34.480Z,149.34
2023-03-30T03:21:34.519Z,147.38
2023-03-30T03:22:34.633Z,147.25
2023-03-30T03:23:34.627Z,146.44
2023-03-30T03:24:34.683Z,147.93
2023-03-30T03:25:35.036Z,149.86
2023-03-30T03:26:34.761Z,144.90
2023-03-30T03:27:34.837Z,143.62
2023-03-30T03:28:34.920Z,148.51
2023-03-30T03:29:34.908Z,146.47
2023-03-30T03:30:35.046Z,145.50
2023-03-30T03:31:35.042Z,147.78
2023-03-30T03:32:35.189Z,146.78
2023-03-30T03:33:35.140Z,146.59
2023-03-30T03:34:35.162Z,147.60
2023-03-30T03:35:35.254Z,144.48
2023-03-30T03:36:35.307Z,144.73
2023-03-30T03:37:35.320Z,141.33
2023-03-30T03:38:35.352Z,145.60
2023-03-30T03:39:35.491Z,150.03
2023-03-30T03:40:35.468Z,144.50
2023-03-30T03:41:35.548Z,144.15
2023-03-30T03:42:35.590Z,145.63
2023-03-30T03:43:35.621Z,144.90
2023-03-30T03:44:35.672Z,148.36
2023-03-30T03:45:35.736Z,146.35
2023-03-30T03:46:35.833Z,147.57
2023-03-30T03:47:35.881Z,146.64
2023-03-30T03:48:35.877Z,145.81
2023-03-30T03:49:35.965Z,146.05
2023-03-30T03:50:35.971Z,144.60
2023-03-30T03:51:36.059Z,146.39
2023-03-30T03:52:36.106Z,147.53
2023-03-30T03:53:36.150Z,145.30
2023-03-30T03:54:36.286Z,142.99
2023-03-30T03:55:36.258Z,144.99
2023-03-30T03:56:36.328Z,146.32
2023-03-30T03:57:36.389Z,143.80
2023-03-30T03:58:36.455Z,146.86
2023-03-30T03:59:36.484Z,143.29
2023-03-30T04:00:36.591Z,144.88
2023-03-30T04:01:36.633Z,146.81
2023-03-30T04:02:36.836Z,143.64
2023-03-30T04:03:36.681Z,146.51
2023-03-30T04:04:36.940Z,142.42
2023-03-30T04:05:36.793Z,140.95
2023-03-30T04:06:36.879Z,138.21
2023-03-30T04:07:36.947Z,139.57
2023-03-30T04:08:36.992Z,135.97
2023-03-30T04:09:37.014Z,132.71
2023-03-30T04:10:37.225Z,134.27
2023-03-30T04:11:37.136Z,133.52
2023-03-30T04:12:37.190Z,130.10
2023-03-30T04:13:37.300Z,128.36
2023-03-30T04:14:37.260Z,128.53
2023-03-30T04:15:37.389Z,129.18
2023-03-30T04:16:37.521Z,124.89
2023-03-30T04:17:37.508Z,123.75
2023-03-30T04:18:37.504Z,122.65
2023-03-30T04:19:37.613Z,122.00
2023-03-30T04:20:37.633Z,120.26
2023-03-30T04:21:37.711Z,119.18
2023-03-30T04:22:37.743Z,114.43
2023-03-30T04:23:37.809Z,111.96
2023-03-30T04:24:37.868Z,110.05
2023-03-30T04:25:37.916Z,110.93
2023-03-30T04:26:37.962Z,109.43
2023-03-30T04:27:38.020Z,105.21
2023-03-30T04:28:38.051Z,105.98
2023-03-30T04:29:38.095Z,108.45
2023-03-30T04:30:38.140Z,104.23
2023-03-30T04:31:38.263Z,101.64
2023-03-30T04:32:38.235Z,101.52
2023-03-30T04:33:38.261Z,97.75
2023-03-30T04:34:38.315Z,97.40
2023-03-30T04:35:38.358Z,97.00
2023-03-30T04:36:38.396Z,96.40
2023-03-30T04:37:38.435Z,93.95
2023-03-30T04:38:38.454Z,96.15
2023-03-30T04:39:38.531Z,99.54
2023-03-30T04:40:38.518Z,99.47
2023-03-30T04:41:38.611Z,97.92
2023-03-30T04:42:38.661Z,95.04
2023-03-30T04:43:38.715Z,93.64
2023-03-30T04:44:38.758Z,98.14
2023-03-30T04:45:38.947Z,99.59
2023-03-30T04:46:38.816Z,96.76
2023-03-30T04:47:38.941Z,94.50
2023-03-30T04:48:39.024Z,95.34
2023-03-30T04:49:39.008Z,96.23
2023-03-30T04:50:39.061Z,97.26
2023-03-30T04:51:39.147Z,92.90
2023-03-30T04:52:39.171Z,91.11
2023-03-30T04:53:39.270Z,96.59
2023-03-30T04:54:39.355Z,93.62
2023-03-30T04:55:39.368Z,93.70
2023-03-30T04:56:39.452Z,95.68
2023-03-30T04:57:39.480Z,96.04
2023-03-30T04:58:39.557Z,93.94
2023-03-30T04:59:39.635Z,94.35
2023-03-30T05:00:39.618Z,95.21
2023-03-30T05:01:39.798Z,93.95
2023-03-30T05:02:39.909Z,95.38
2023-03-30T05:03:39.883Z,94.26
2023-03-30T05:04:39.915Z,94.27
2023-03-30T05:05:39.967Z,94.84
2023-03-30T05:06:40.051Z,93.76
2023-03-30T05:07:40.073Z,96.33
2023-03-30T05:08:41.774Z,97.24
2023-03-30T05:09:40.189Z,96.15
2023-03-30T05:10:40.217Z,93.85
2023-03-30T05:11:40.325Z,96.15
2023-03-30T05:12:40.383Z,93.06
2023-03-30T05:13:40.458Z,96.65
2023-03-30T05:14:40.509Z,100.84
2023-03-30T05:15:40.553Z,97.93
2023-03-30T05:16:40.682Z,94.63
2023-03-30T05:17:40.681Z,100.82
2023-03-30T05:18:40.765Z,100.44
2023-03-30T05:19:40.801Z,95.15
2023-03-30T05:20:40.857Z,96.18
2023-03-30T05:21:40.904Z,93.42
2023-03-30T05:22:40.995Z,95.73
2023-03-30T05:23:41.014Z,100.30
2023-03-30T05:24:41.122Z,96.66
2023-03-30T05:25:41.144Z,99.04
2023-03-30T05:26:41.211Z,100.31
2023-03-30T05:27:41.343Z,98.78
2023-03-30T05:28:41.349Z,96.43
2023-03-30T05:29:41.409Z,96.76
2023-03-30T05:30:41.462Z,99.71
2023-03-30T05:31:41.553Z,93.42
2023-03-30T05:32:41.628Z,97.49
2023-03-30T05:33:43.814Z,100.64
2023-03-30T05:34:41.719Z,99.36
2023-03-30T05:35:41.814Z,92.88
2023-03-30T05:36:41.735Z,97.04
2023-03-30T05:37:42.369Z,96.62
2023-03-30T05:38:41.940Z,95.37
2023-03-30T05:39:43.009Z,98.16
2023-03-30T05:40:42.392Z,96.59
2023-03-30T05:41:42.014Z,92.21
2023-03-30T05:42:42.248Z,97.41
2023-03-30T05:43:42.681Z,102.81
2023-03-30T05:44:42.266Z,99.99
2023-03-30T05:45:42.327Z,99.40
2023-03-30T05:46:42.464Z,97.25
2023-03-30T05:47:43.398Z,98.24
2023-03-30T05:48:42.483Z,101.32
2023-03-30T05:49:42.524Z,100.07
2023-03-30T05:50:42.573Z,101.66
2023-03-30T05:51:42.614Z,99.70
2023-03-30T05:52:42.739Z,101.12
2023-03-30T05:53:42.770Z,97.46
2023-03-30T05:54:42.854Z,97.57
2023-03-30T05:55:42.933Z,99.30
2023-03-30T05:56:43.008Z,95.07
2023-03-30T05:57:43.091Z,99.15
2023-03-30T05:58:43.074Z,97.49
2023-03-30T05:59:43.177Z,100.60
2023-03-30T06:00:43.208Z,97.58
2023-03-30T06:01:43.284Z,99.84
2023-03-30T06:02:43.377Z,102.01
2023-03-30T06:03:43.594Z,102.57
2023-03-30T06:04:43.504Z,101.29
2023-03-30T06:05:43.569Z,98.28
2023-03-30T06:06:43.584Z,99.44
2023-03-30T06:07:43.683Z,98.02
2023-03-30T06:08:43.713Z,100.23
2023-03-30T06:09:43.829Z,97.88
2023-03-30T06:10:43.853Z,99.58
2023-03-30T06:11:43.890Z,98.55
2023-03-30T06:12:43.961Z,100.08
2023-03-30T06:13:44.030Z,99.11
2023-03-30T06:14:44.081Z,102.22
2023-03-30T06:15:44.149Z,97.39
2023-03-30T06:16:44.293Z,94.63
2023-03-30T06:17:44.662Z,99.13
2023-03-30T06:18:44.365Z,97.38
2023-03-30T06:19:44.414Z,101.16
2023-03-30T06:20:44.478Z,100.69
2023-03-30T06:21:44.520Z,98.44
2023-03-30T06:22:44.718Z,102.99
2023-03-30T06:23:44.653Z,97.20
2023-03-30T06:24:44.820Z,97.48
2023-03-30T06:25:45.333Z,100.33
2023-03-30T06:26:44.835Z,98.70
2023-03-30T06:27:45.195Z,99.42
2023-03-30T06:28:44.967Z,102.43
2023-03-30T06:29:45.013Z,97.91
2023-03-30T06:30:45.055Z,100.65
2023-03-30T06:31:45.183Z,97.73
2023-03-30T06:32:47.956Z,109.94
2023-03-30T06:33:45.868Z,115.81
2023-03-30T06:34:45.129Z,119.43
2023-03-30T06:35:45.224Z,116.00
2023-03-30T06:36:46.079Z,127.70
2023-03-30T06:37:45.420Z,114.95
2023-03-30T06:38:45.455Z,114.46
2023-03-30T06:39:45.142Z,128.57
2023-03-30T06:40:45.245Z,141.22
2023-03-30T06:41:45.131Z,147.83
2023-03-30T06:42:45.152Z,157.70
2023-03-30T06:43:45.142Z,169.24
2023-03-30T06:44:46.570Z,180.00
2023-03-30T06:45:45.170Z,191.04
2023-03-30T06:46:45.305Z,198.02
2023-03-30T06:47:45.135Z,200.77
2023-03-30T06:48:45.135Z,199.33
2023-03-30T06:49:45.145Z,202.78
2023-03-30T06:50:45.144Z,203.41
2023-03-30T06:51:45.112Z,210.60
2023-03-30T06:52:45.133Z,210.60
2023-03-30T06:53:45.132Z,216.93
2023-03-30T06:54:45.186Z,215.22
2023-03-30T06:55:45.160Z,217.26
2023-03-30T06:56:45.182Z,239.80
2023-03-30T06:57:45.164Z,228.79
2023-03-30T06:58:45.142Z,226.66
2023-03-30T06:59:45.126Z,250.00
2023-03-30T07:00:45.151Z,245.21
2023-03-30T07:01:45.182Z,243.74
2023-03-30T07:02:45.203Z,249.22
2023-03-30T07:03:45.154Z,249.48
2023-03-30T07:04:45.270Z,248.33
2023-03-30T07:05:45.167Z,245.38
2023-03-30T07:06:45.184Z,243.75
2023-03-30T07:07:45.190Z,242.95
2023-03-30T07:08:45.213Z,237.93
2023-03-30T07:09:45.146Z,236.54
2023-03-30T07:10:45.438Z,238.22
2023-03-30T07:11:45.165Z,238.16
2023-03-30T07:12:45.414Z,232.67
2023-03-30T07:13:45.276Z,234.59
2023-03-30T07:14:45.179Z,236.16
2023-03-30T07:15:45.175Z,232.84
2023-03-30T07:16:45.200Z,232.77
2023-03-30T07:17:45.243Z,235.41
2023-03-30T07:18:45.255Z,235.63
2023-03-30T07:19:45.205Z,229.27
2023-03-30T07:20:46.846Z,230.64
2023-03-30T07:21:45.186Z,232.10
2023-03-30T07:22:45.206Z,230.87
2023-03-30T07:23:45.212Z,227.30
2023-03-30T07:24:45.194Z,235.27
2023-03-30T07:25:45.287Z,230.12
2023-03-30T07:26:45.128Z,226.51
2023-03-30T07:27:45.411Z,225.54
2023-03-30T07:28:45.163Z,226.66
2023-03-30T07:29:45.377Z,226.53
2023-03-30T07:30:45.191Z,223.07
2023-03-30T07:31:45.172Z,222.54
2023-03-30T07:32:45.243Z,224.13
2023-03-30T07:33:45.177Z,222.89
2023-03-30T07:34:45.171Z,223.24
2023-03-30T07:35:45.177Z,227.80
2023-03-30T07:36:45.133Z,223.71
2023-03-30T07:37:45.382Z,223.80
2023-03-30T07:38:45.122Z,219.14
2023-03-30T07:39:45.117Z,221.48
2023-03-30T07:40:45.181Z,219.94
2023-03-30T07:41:45.102Z,219.71
2023-03-30T07:42:45.123Z,220.20
2023-03-30T07:43:45.367Z,222.37
2023-03-30T07:44:45.133Z,226.52
2023-03-30T07:45:45.085Z,218.62
2023-03-30T07:46:45.294Z,221.41
2023-03-30T07:47:45.272Z,217.78
2023-03-30T07:48:45.409Z,216.62
2023-03-30T07:49:45.291Z,217.89
2023-03-30T07:50:45.438Z,220.76
2023-03-30T07:51:45.508Z,218.01
2023-03-30T07:52:45.530Z,221.79
2023-03-30T07:53:45.541Z,218.49
2023-03-30T07:54:45.603Z,217.05
2023-03-30T07:55:45.677Z,215.03
2023-03-30T07:56:45.741Z,219.38
2023-03-30T07:57:45.784Z,218.73
2023-03-30T07:58:45.820Z,216.89
2023-03-30T07:59:45.837Z,216.26
2023-03-30T08:00:45.847Z,215.90
2023-03-30T08:01:45.961Z,217.37
2023-03-30T08:02:46.029Z,214.98
2023-03-30T08:03:46.428Z,216.82
2023-03-30T08:04:46.501Z,217.38
2023-03-30T08:05:46.134Z,215.56
2023-03-30T08:06:46.176Z,217.67
2023-03-30T08:07:46.146Z,216.91
2023-03-30T08:08:46.236Z,218.22
2023-03-30T08:09:46.241Z,217.06
2023-03-30T08:10:46.270Z,221.60
2023-03-30T08:11:46.364Z,219.53
2023-03-30T08:12:46.494Z,218.85
2023-03-30T08:13:46.359Z,219.84
2023-03-30T08:14:46.399Z,219.27
2023-03-30T08:15:46.450Z,221.52
2023-03-30T08:16:46.435Z,222.96
2023-03-30T08:17:46.546Z,222.30
2023-03-30T08:18:46.915Z,224.79
2023-03-30T08:19:46.558Z,223.56
2023-03-30T08:20:46.538Z,225.19
2023-03-30T08:21:46.561Z,224.85
2023-03-30T08:22:46.622Z,224.33
2023-03-30T08:23:46.883Z,221.47
2023-03-30T08:24:46.691Z,224.84
2023-03-30T08:25:47.400Z,227.47
2023-03-30T08:26:46.722Z,227.53
2023-03-30T08:27:46.763Z,227.32
2023-03-30T08:28:46.803Z,227.34
2023-03-30T08:29:46.808Z,222.72
2023-03-30T08:30:46.883Z,218.40
2023-03-30T08:31:46.900Z,218.37
2023-03-30T08:32:46.927Z,216.73
2023-03-30T08:33:46.916Z,211.30
2023-03-30T08:34:47.433Z,208.74
2023-03-30T08:35:46.994Z,202.24
2023-03-30T08:36:47.028Z,201.50
2023-03-30T08:37:47.046Z,199.87
2023-03-30T08:38:47.072Z,196.75
2023-03-30T08:39:47.397Z,195.81
2023-03-30T08:40:47.171Z,195.38
2023-03-30T08:41:47.939Z,190.53
2023-03-30T08:42:47.216Z,186.34
2023-03-30T08:43:47.378Z,183.05
2023-03-30T08:44:47.320Z,179.84
2023-03-30T08:45:47.514Z,179.58
2023-03-30T08:46:47.399Z,188.21
2023-03-30T08:47:47.485Z,195.02
2023-03-30T08:48:47.638Z,194.39
2023-03-30T08:49:47.945Z,193.36
2023-03-30T08:50:47.551Z,196.67
2023-03-30T08:51:47.625Z,199.10
2023-03-30T08:52:47.632Z,202.19
2023-03-30T08:53:47.675Z,198.12
2023-03-30T08:54:47.918Z,197.81
2023-03-30T08:55:47.776Z,200.67
2023-03-30T08:56:47.812Z,201.61
2023-03-30T08:57:47.806Z,205.16
2023-03-30T08:58:47.816Z,203.24
2023-03-30T08:59:47.943Z,203.17
2023-03-30T09:00:47.917Z,204.69
2023-03-30T09:01:47.941Z,206.69
2023-03-30T09:02:48.002Z,208.65
2023-03-30T09:03:47.981Z,209.53
2023-03-30T09:04:47.986Z,211.27
2023-03-30T09:05:47.979Z,215.75
2023-03-30T09:06:48.399Z,216.23
2023-03-30T09:07:48.097Z,220.01
2023-03-30T09:08:48.117Z,219.34
2023-03-30T09:09:49.575Z,223.25
2023-03-30T09:10:48.170Z,226.18
2023-03-30T09:11:48.395Z,224.82
2023-03-30T09:12:48.772Z,227.11
2023-03-30T09:13:48.956Z,227.23
2023-03-30T09:14:48.234Z,228.49
2023-03-30T09:15:48.319Z,228.63
2023-03-30T09:16:48.471Z,231.26
2023-03-30T09:17:48.356Z,229.00
2023-03-30T09:18:48.329Z,231.47
2023-03-30T09:19:48.340Z,232.85
2023-03-30T09:20:48.386Z,233.09
2023-03-30T09:21:48.887Z,230.73
2023-03-30T09:22:48.454Z,235.43
2023-03-30T09:23:48.466Z,234.47
2023-03-30T09:24:48.505Z,235.60
2023-03-30T09:25:48.534Z,231.61
2023-03-30T09:26:48.541Z,235.28
2023-03-30T09:27:48.889Z,231.09
2023-03-30T09:28:48.609Z,235.03
2023-03-30T09:29:48.666Z,235.22
2023-03-30T09:30:49.457Z,236.61
2023-03-30T09:31:48.750Z,234.45
2023-03-30T09:32:48.813Z,241.28
2023-03-30T09:33:49.000Z,239.10
2023-03-30T09:34:48.781Z,216.64
2023-03-30T09:35:49.443Z,178.85
2023-03-30T09:36:48.871Z,158.12
2023-03-30T09:37:48.876Z,136.79
2023-03-30T09:38:48.921Z,123.52
2023-03-30T09:39:48.936Z,113.47
2023-03-30T09:40:49.436Z,92.84
2023-03-30T09:41:49.035Z,85.03
2023-03-30T09:42:49.123Z,87.26
2023-03-30T09:43:49.152Z,85.76
2023-03-30T09:44:49.277Z,103.02
2023-03-30T09:45:49.313Z,124.50
2023-03-30T09:46:49.342Z,134.44
2023-03-30T09:47:49.445Z,134.65
2023-03-30T09:48:49.392Z,122.54
2023-03-30T09:49:49.421Z,101.75
2023-03-30T09:50:49.521Z,86.95
2023-03-30T09:51:49.527Z,68.96
2023-03-30T09:52:49.584Z,59.09
2023-03-30T09:53:49.595Z,53.10
2023-03-30T09:54:49.599Z,51.48
2023-03-30T09:55:49.595Z,48.65
2023-03-30T09:56:49.640Z,44.58
2023-03-30T09:57:49.633Z,38.75
2023-03-30T09:58:49.557Z,29.79
2023-03-30T09:59:49.590Z,27.38
2023-03-30T10:00:49.563Z,22.31
2023-03-30T10:01:49.638Z,28.28
2023-03-30T10:02:49.623Z,29.04
2023-03-30T10:03:49.760Z,27.90
2023-03-30T10:04:49.613Z,29.29
2023-03-30T10:05:49.609Z,30.76
2023-03-30T10:06:49.585Z,28.50
2023-03-30T10:07:49.583Z,26.73
2023-03-30T10:08:49.604Z,25.24
2023-03-30T10:09:49.631Z,25.23
2023-03-30T10:10:49.630Z,29.07
2023-03-30T10:11:49.631Z,32.64
2023-03-30T10:12:49.688Z,27.00
2023-03-30T10:13:49.631Z,33.53
2023-03-30T10:14:49.616Z,38.90
2023-03-30T10:15:49.626Z,31.32
2023-03-30T10:16:49.648Z,29.34
2023-03-30T10:17:49.654Z,26.99
2023-03-30T10:18:49.687Z,28.16
2023-03-30T10:19:55.343Z,25.00
2023-03-30T10:20:50.694Z,25.03
2023-03-30T10:21:49.684Z,24.29
2023-03-30T10:22:49.643Z,27.82
2023-03-30T10:23:49.616Z,32.35
2023-03-30T10:24:49.618Z,47.36
2023-03-30T10:25:49.639Z,30.63
2023-03-30T10:26:49.611Z,23.64
2023-03-30T10:27:49.625Z,26.12
2023-03-30T10:28:49.547Z,27.00
2023-03-30T10:29:49.560Z,28.78
2023-03-30T10:30:49.530Z,34.67
2023-03-30T10:31:49.590Z,49.74
2023-03-30T10:32:49.597Z,57.66
2023-03-30T10:33:49.564Z,61.43
2023-03-30T10:34:49.560Z,68.28
2023-03-30T10:35:49.575Z,71.91
2023-03-30T10:36:50.817Z,75.89
2023-03-30T10:37:49.492Z,72.75
2023-03-30T10:38:49.515Z,66.67
2023-03-30T10:39:49.522Z,59.17
2023-03-30T10:40:49.503Z,55.26
2023-03-30T10:41:49.456Z,63.39
2023-03-30T10:42:49.531Z,58.72
2023-03-30T10:43:49.534Z,59.53
2023-03-30T10:44:49.462Z,59.94
2023-03-30T10:45:49.494Z,65.75
2023-03-30T10:46:49.457Z,68.80
2023-03-30T10:47:49.466Z,64.70
2023-03-30T10:48:49.459Z,64.96
2023-03-30T10:49:49.466Z,61.14
2023-03-30T10:50:49.402Z,67.17
2023-03-30T10:51:49.396Z,61.73
2023-03-30T10:52:58.368Z,59.34
2023-03-30T10:53:50.349Z,59.67
2023-03-30T10:54:49.401Z,60.92
2023-03-30T10:55:49.351Z,62.95
2023-03-30T10:56:49.372Z,66.09
2023-03-30T10:57:49.329Z,78.77
2023-03-30T10:58:49.338Z,82.47
2023-03-30T10:59:49.372Z,77.70
2023-03-30T11:00:49.337Z,77.42
2023-03-30T11:01:49.369Z,76.42
2023-03-30T11:02:49.597Z,76.04
2023-03-30T11:03:49.526Z,78.46
2023-03-30T11:04:49.587Z,82.60
2023-03-30T11:05:49.680Z,83.16
2023-03-30T11:06:49.703Z,81.18
2023-03-30T11:07:49.741Z,82.89
2023-03-30T11:08:49.796Z,81.23
2023-03-30T11:09:49.845Z,83.38
2023-03-30T11:10:49.928Z,83.02
2023-03-30T11:11:49.944Z,88.64
2023-03-30T11:12:50.045Z,88.06
2023-03-30T11:13:50.073Z,89.87
2023-03-30T11:14:50.158Z,85.69
2023-03-30T11:15:50.148Z,87.97
2023-03-30T11:16:53.307Z,83.98
2023-03-30T11:17:51.174Z,88.78
2023-03-30T11:18:50.212Z,85.66
2023-03-30T11:19:50.203Z,84.10
2023-03-30T11:20:50.176Z,83.69
2023-03-30T11:21:50.201Z,86.06
2023-03-30T11:22:50.155Z,84.95
2023-03-30T11:23:50.150Z,81.56
2023-03-30T11:24:50.122Z,80.34
2023-03-30T11:25:50.195Z,79.71
2023-03-30T11:26:50.140Z,78.45
2023-03-30T11:27:50.160Z,77.99
2023-03-30T11:28:50.134Z,75.26
2023-03-30T11:29:50.142Z,71.44
2023-03-30T11:30:50.103Z,71.71
2023-03-30T11:31:50.125Z,71.94
2023-03-30T11:32:50.106Z,71.51
2023-03-30T11:33:50.096Z,74.14
2023-03-30T11:34:50.076Z,75.75
2023-03-30T11:35:50.128Z,77.54
2023-03-30T11:36:50.070Z,76.65
2023-03-30T11:37:50.042Z,75.51
2023-03-30T11:38:50.060Z,71.19
2023-03-30T11:39:50.117Z,74.48
2023-03-30T11:40:50.062Z,74.62
2023-03-30T11:41:50.001Z,73.21
2023-03-30T11:42:50.028Z,70.16
2023-03-30T11:43:50.031Z,70.90
2023-03-30T11:44:49.974Z,69.10
2023-03-30T11:45:50.033Z,68.20
2023-03-30T11:46:51.840Z,69.11
2023-03-30T11:47:50.386Z,66.96
2023-03-30T11:48:50.025Z,65.98
2023-03-30T11:49:50.019Z,67.64
2023-03-30T11:50:50.038Z,69.84
2023-03-30T11:51:50.046Z,73.01
2023-03-30T11:52:50.087Z,70.71
2023-03-30T11:53:50.102Z,77.55
2023-03-30T11:55:02.243Z,73.77
2023-03-30T11:55:51.090Z,73.91
2023-03-30T11:56:50.100Z,74.61
2023-03-30T11:57:50.062Z,76.57
2023-03-30T11:58:50.060Z,82.38
2023-03-30T11:59:50.060Z,94.23
2023-03-30T12:00:50.033Z,98.94
2023-03-30T12:01:49.991Z,100.39
2023-03-30T12:02:50.035Z,105.69
2023-03-30T12:03:50.335Z,105.62
2023-03-30T12:04:50.064Z,111.72
2023-03-30T12:05:49.988Z,116.53
2023-03-30T12:06:49.972Z,114.99
2023-03-30T12:07:49.939Z,117.06
2023-03-30T12:08:49.936Z,117.64
2023-03-30T12:09:50.472Z,121.18
2023-03-30T12:10:49.967Z,125.45
2023-03-30T12:11:49.962Z,125.81
2023-03-30T12:12:49.977Z,127.29
2023-03-30T12:13:52.108Z,128.16
2023-03-30T12:14:50.089Z,131.63
2023-03-30T12:15:50.114Z,133.60
2023-03-30T12:16:50.191Z,132.27
2023-03-30T12:17:50.378Z,133.54
2023-03-30T12:18:50.207Z,139.36
2023-03-30T12:19:56.640Z,138.86
2023-03-30T12:20:51.324Z,139.01
2023-03-30T12:21:50.274Z,139.40
2023-03-30T12:22:50.305Z,140.65
2023-03-30T12:23:50.264Z,143.17
2023-03-30T12:24:50.191Z,144.45
2023-03-30T12:25:50.258Z,142.92
2023-03-30T12:27:04.368Z,147.00
2023-03-30T12:27:51.240Z,147.14
2023-03-30T12:29:20.858Z,147.26
2023-03-30T12:30:51.226Z,147.41
2023-03-30T12:31:50.239Z,148.31
2023-03-30T12:32:50.306Z,149.29
2023-03-30T12:33:50.174Z,151.12
2023-03-30T12:34:50.195Z,154.15
2023-03-30T12:35:50.232Z,156.69
2023-03-30T12:36:50.114Z,157.99